sensor_id;sensor_type;location;lat;lon;timestamp;pressure;altitude;pressure_sealevel;temperature;humidity
3464;BME280;3551;41.578;24.706;2024-02-15T00:02:05;91254.78;;;3.71;100.00
3464;BME280;3551;41.578;24.706;2024-02-15T00:04:32;91250.75;;;3.58;100.00
3464;BME280;3551;41.578;24.706;2024-02-15T00:06:59;91259.94;;;3.29;100.00
3464;BME280;3551;41.578;24.706;2024-02-15T00:09:27;91264.19;;;3.34;100.00
3464;BME280;3551;41.578;24.706;2024-02-15T00:11:54;91248.88;;;3.59;100.00
3464;BME280;3551;41.578;24.706;2024-02-15T00:14:21;91240.25;;;3.62;100.00
3464;BME280;3551;41.578;24.706;2024-02-15T00:16:48;91257.16;;;3.76;100.00
3464;BME280;3551;41.578;24.706;2024-02-15T00:19:16;91249.38;;;3.64;100.00
3464;BME280;3551;41.578;24.706;2024-02-15T00:21:43;91248.91;;;3.43;100.00
3464;BME280;3551;41.578;24.706;2024-02-15T00:24:10;91244.69;;;3.38;100.00
3464;BME280;3551;41.578;24.706;2024-02-15T00:26:38;91246.34;;;3.47;100.00
3464;BME280;3551;41.578;24.706;2024-02-15T00:29:04;91237.56;;;3.42;100.00
3464;BME280;3551;41.578;24.706;2024-02-15T00:31:31;91250.66;;;3.55;100.00
3464;BME280;3551;41.578;24.706;2024-02-15T00:33:59;91239.03;;;3.59;100.00
3464;BME280;3551;41.578;24.706;2024-02-15T00:36:29;91232.78;;;3.48;100.00
3464;BME280;3551;41.578;24.706;2024-02-15T00:38:56;91244.69;;;3.58;100.00
3464;BME280;3551;41.578;24.706;2024-02-15T00:41:23;91236.19;;;3.68;100.00
3464;BME280;3551;41.578;24.706;2024-02-15T00:43:50;91240.66;;;3.83;100.00
3464;BME280;3551;41.578;24.706;2024-02-15T00:46:16;91238.66;;;3.76;100.00
3464;BME280;3551;41.578;24.706;2024-02-15T00:48:43;91235.97;;;3.38;100.00
3464;BME280;3551;41.578;24.706;2024-02-15T00:51:10;91232.75;;;3.29;100.00
3464;BME280;3551;41.578;24.706;2024-02-15T00:53:38;91226.97;;;3.23;100.00
3464;BME280;3551;41.578;24.706;2024-02-15T00:56:06;91232.56;;;3.37;100.00
3464;BME280;3551;41.578;24.706;2024-02-15T00:58:32;91272.09;;;3.15;100.00
3464;BME280;3551;41.578;24.706;2024-02-15T01:00:59;91238.63;;;2.88;100.00
3464;BME280;3551;41.578;24.706;2024-02-15T01:03:26;91237.53;;;2.89;100.00
3464;BME280;3551;41.578;24.706;2024-02-15T01:05:53;91224.09;;;3.13;100.00
3464;BME280;3551;41.578;24.706;2024-02-15T01:08:20;91226.34;;;3.30;100.00
3464;BME280;3551;41.578;24.706;2024-02-15T01:10:48;91226.25;;;3.61;100.00
3464;BME280;3551;41.578;24.706;2024-02-15T01:13:15;91224.91;;;3.71;100.00
3464;BME280;3551;41.578;24.706;2024-02-15T01:15:42;91219.34;;;3.95;100.00
3464;BME280;3551;41.578;24.706;2024-02-15T01:18:10;91221.13;;;3.87;100.00
3464;BME280;3551;41.578;24.706;2024-02-15T01:20:36;91202.94;;;3.67;100.00
3464;BME280;3551;41.578;24.706;2024-02-15T01:23:03;91210.06;;;3.82;100.00
3464;BME280;3551;41.578;24.706;2024-02-15T01:25:33;91215.47;;;3.89;100.00
3464;BME280;3551;41.578;24.706;2024-02-15T01:28:01;91209.56;;;3.76;100.00
3464;BME280;3551;41.578;24.706;2024-02-15T01:30:28;91212.25;;;3.80;100.00
3464;BME280;3551;41.578;24.706;2024-02-15T01:32:55;91213.38;;;3.98;100.00
3464;BME280;3551;41.578;24.706;2024-02-15T01:35:22;91212.19;;;3.95;100.00
3464;BME280;3551;41.578;24.706;2024-02-15T01:37:49;91212.88;;;3.92;100.00
3464;BME280;3551;41.578;24.706;2024-02-15T01:40:16;91207.09;;;3.68;100.00
3464;BME280;3551;41.578;24.706;2024-02-15T01:42:45;91212.69;;;3.82;100.00
3464;BME280;3551;41.578;24.706;2024-02-15T01:45:13;91201.56;;;3.73;100.00
3464;BME280;3551;41.578;24.706;2024-02-15T01:47:40;91213.38;;;3.79;100.00
3464;BME280;3551;41.578;24.706;2024-02-15T01:50:09;91207.81;;;3.84;100.00
3464;BME280;3551;41.578;24.706;2024-02-15T01:52:37;91212.34;;;3.83;100.00
3464;BME280;3551;41.578;24.706;2024-02-15T01:55:06;91216.84;;;3.83;100.00
3464;BME280;3551;41.578;24.706;2024-02-15T01:57:35;91207.75;;;3.80;100.00
3464;BME280;3551;41.578;24.706;2024-02-15T02:00:04;91217.06;;;3.93;100.00
3464;BME280;3551;41.578;24.706;2024-02-15T02:02:34;91217.41;;;3.92;100.00
3464;BME280;3551;41.578;24.706;2024-02-15T02:05:02;91216.28;;;3.74;100.00
3464;BME280;3551;41.578;24.706;2024-02-15T02:07:29;91229.06;;;3.87;100.00
3464;BME280;3551;41.578;24.706;2024-02-15T02:09:56;91225.22;;;3.66;100.00
3464;BME280;3551;41.578;24.706;2024-02-15T02:12:23;91228.47;;;3.59;100.00
3464;BME280;3551;41.578;24.706;2024-02-15T02:14:53;91232.72;;;3.64;100.00
3464;BME280;3551;41.578;24.706;2024-02-15T02:17:20;91233.28;;;3.73;100.00
3464;BME280;3551;41.578;24.706;2024-02-15T02:19:49;91250.53;;;3.67;100.00
3464;BME280;3551;41.578;24.706;2024-02-15T02:22:16;91249.69;;;3.63;100.00
3464;BME280;3551;41.578;24.706;2024-02-15T02:24:55;91243.59;;;3.78;100.00
3464;BME280;3551;41.578;24.706;2024-02-15T02:27:23;91250.66;;;3.74;100.00
3464;BME280;3551;41.578;24.706;2024-02-15T02:29:50;91263.06;;;3.70;100.00
3464;BME280;3551;41.578;24.706;2024-02-15T02:32:17;91261.06;;;3.13;100.00
3464;BME280;3551;41.578;24.706;2024-02-15T02:34:44;91258.47;;;2.81;100.00
3464;BME280;3551;41.578;24.706;2024-02-15T02:37:10;91256.41;;;2.91;100.00
3464;BME280;3551;41.578;24.706;2024-02-15T02:39:39;91252.97;;;3.21;100.00
3464;BME280;3551;41.578;24.706;2024-02-15T02:42:08;91256.16;;;3.46;100.00
3464;BME280;3551;41.578;24.706;2024-02-15T02:44:34;91256.25;;;3.34;100.00
3464;BME280;3551;41.578;24.706;2024-02-15T02:47:01;91253.84;;;3.10;100.00
3464;BME280;3551;41.578;24.706;2024-02-15T02:49:28;91252.97;;;3.21;100.00
3464;BME280;3551;41.578;24.706;2024-02-15T02:51:55;91257.75;;;3.16;100.00
3464;BME280;3551;41.578;24.706;2024-02-15T02:54:22;91254.47;;;3.03;100.00
3464;BME280;3551;41.578;24.706;2024-02-15T02:56:48;91276.06;;;3.24;100.00
3464;BME280;3551;41.578;24.706;2024-02-15T02:59:17;91241.59;;;3.36;100.00
3464;BME280;3551;41.578;24.706;2024-02-15T03:01:44;91247.81;;;3.44;100.00
3464;BME280;3551;41.578;24.706;2024-02-15T03:04:11;91245.66;;;3.50;100.00
3464;BME280;3551;41.578;24.706;2024-02-15T03:06:42;91247.31;;;3.38;100.00
3464;BME280;3551;41.578;24.706;2024-02-15T03:09:09;91248.31;;;3.50;100.00
3464;BME280;3551;41.578;24.706;2024-02-15T03:11:36;91246.19;;;3.05;100.00
3464;BME280;3551;41.578;24.706;2024-02-15T03:14:03;91258.78;;;3.11;100.00
3464;BME280;3551;41.578;24.706;2024-02-15T03:16:32;91264.66;;;3.05;100.00
3464;BME280;3551;41.578;24.706;2024-02-15T03:18:59;91255.78;;;3.13;100.00
3464;BME280;3551;41.578;24.706;2024-02-15T03:21:28;91248.13;;;3.08;100.00
3464;BME280;3551;41.578;24.706;2024-02-15T03:23:55;91260.47;;;3.19;100.00
3464;BME280;3551;41.578;24.706;2024-02-15T03:26:29;91259.56;;;3.12;100.00
3464;BME280;3551;41.578;24.706;2024-02-15T03:29:02;91249.69;;;2.77;100.00
3464;BME280;3551;41.578;24.706;2024-02-15T03:31:29;91254.69;;;3.14;100.00
3464;BME280;3551;41.578;24.706;2024-02-15T03:33:58;91266.94;;;3.22;100.00
3464;BME280;3551;41.578;24.706;2024-02-15T03:36:26;91263.38;;;3.14;100.00
3464;BME280;3551;41.578;24.706;2024-02-15T03:38:54;91255.97;;;3.20;100.00
3464;BME280;3551;41.578;24.706;2024-02-15T03:41:21;91265.84;;;3.07;100.00
3464;BME280;3551;41.578;24.706;2024-02-15T03:43:49;91274.38;;;3.01;100.00
3464;BME280;3551;41.578;24.706;2024-02-15T03:46:16;91264.91;;;3.15;100.00
3464;BME280;3551;41.578;24.706;2024-02-15T03:48:43;91260.06;;;3.17;100.00
3464;BME280;3551;41.578;24.706;2024-02-15T03:51:16;91271.81;;;3.20;100.00
3464;BME280;3551;41.578;24.706;2024-02-15T03:53:43;91267.31;;;3.05;100.00
3464;BME280;3551;41.578;24.706;2024-02-15T03:56:09;91249.41;;;2.98;100.00
3464;BME280;3551;41.578;24.706;2024-02-15T03:58:38;91279.59;;;2.97;100.00
3464;BME280;3551;41.578;24.706;2024-02-15T04:01:05;91273.44;;;3.09;100.00
3464;BME280;3551;41.578;24.706;2024-02-15T04:03:35;91268.53;;;2.92;100.00
3464;BME280;3551;41.578;24.706;2024-02-15T04:06:02;91273.28;;;2.86;100.00
3464;BME280;3551;41.578;24.706;2024-02-15T04:08:31;91269.81;;;2.98;100.00
3464;BME280;3551;41.578;24.706;2024-02-15T04:10:58;91277.72;;;2.98;100.00
3464;BME280;3551;41.578;24.706;2024-02-15T04:13:25;91254.38;;;2.84;100.00
3464;BME280;3551;41.578;24.706;2024-02-15T04:15:52;91273.13;;;2.95;100.00
3464;BME280;3551;41.578;24.706;2024-02-15T04:18:19;91259.38;;;2.89;100.00
3464;BME280;3551;41.578;24.706;2024-02-15T04:20:47;91257.53;;;2.90;100.00
3464;BME280;3551;41.578;24.706;2024-02-15T04:23:14;91266.31;;;2.94;100.00
3464;BME280;3551;41.578;24.706;2024-02-15T04:25:42;91266.56;;;2.73;100.00
3464;BME280;3551;41.578;24.706;2024-02-15T04:28:16;91260.59;;;2.76;100.00
3464;BME280;3551;41.578;24.706;2024-02-15T04:30:43;91275.09;;;2.82;100.00
3464;BME280;3551;41.578;24.706;2024-02-15T04:33:12;91263.34;;;2.79;100.00
3464;BME280;3551;41.578;24.706;2024-02-15T04:35:41;91259.75;;;2.88;100.00
3464;BME280;3551;41.578;24.706;2024-02-15T04:38:07;91256.88;;;2.77;100.00
3464;BME280;3551;41.578;24.706;2024-02-15T04:40:35;91261.47;;;2.80;100.00
3464;BME280;3551;41.578;24.706;2024-02-15T04:43:05;91253.88;;;2.78;100.00
3464;BME280;3551;41.578;24.706;2024-02-15T04:45:32;91273.66;;;2.25;100.00
3464;BME280;3551;41.578;24.706;2024-02-15T04:47:59;91260.69;;;2.64;100.00
3464;BME280;3551;41.578;24.706;2024-02-15T04:50:27;91264.19;;;2.68;100.00
3464;BME280;3551;41.578;24.706;2024-02-15T04:52:55;91257.03;;;2.68;100.00
3464;BME280;3551;41.578;24.706;2024-02-15T04:55:22;91265.47;;;2.74;100.00
3464;BME280;3551;41.578;24.706;2024-02-15T04:57:49;91263.56;;;2.90;100.00
3464;BME280;3551;41.578;24.706;2024-02-15T05:00:22;91256.19;;;2.80;100.00
3464;BME280;3551;41.578;24.706;2024-02-15T05:02:51;91272.28;;;2.91;100.00
3464;BME280;3551;41.578;24.706;2024-02-15T05:05:19;91272.09;;;2.83;100.00
3464;BME280;3551;41.578;24.706;2024-02-15T05:07:47;91273.63;;;2.84;100.00
3464;BME280;3551;41.578;24.706;2024-02-15T05:10:16;91279.00;;;2.57;100.00
3464;BME280;3551;41.578;24.706;2024-02-15T05:12:43;91276.94;;;2.50;100.00
3464;BME280;3551;41.578;24.706;2024-02-15T05:15:10;91288.50;;;2.46;100.00
3464;BME280;3551;41.578;24.706;2024-02-15T05:17:39;91277.09;;;2.42;100.00
3464;BME280;3551;41.578;24.706;2024-02-15T05:20:08;91283.69;;;2.20;100.00
3464;BME280;3551;41.578;24.706;2024-02-15T05:22:37;91285.34;;;1.97;100.00
3464;BME280;3551;41.578;24.706;2024-02-15T05:25:06;91284.72;;;2.15;100.00
3464;BME280;3551;41.578;24.706;2024-02-15T05:27:34;91287.72;;;2.45;100.00
3464;BME280;3551;41.578;24.706;2024-02-15T05:30:02;91281.25;;;2.43;100.00
3464;BME280;3551;41.578;24.706;2024-02-15T05:32:33;91288.84;;;2.60;100.00
3464;BME280;3551;41.578;24.706;2024-02-15T05:35:10;91281.94;;;2.24;100.00
3464;BME280;3551;41.578;24.706;2024-02-15T05:37:37;91282.63;;;2.37;100.00
3464;BME280;3551;41.578;24.706;2024-02-15T05:40:05;91300.34;;;2.52;100.00
3464;BME280;3551;41.578;24.706;2024-02-15T05:42:32;91291.16;;;2.61;100.00
3464;BME280;3551;41.578;24.706;2024-02-15T05:45:28;91312.81;;;2.67;100.00
3464;BME280;3551;41.578;24.706;2024-02-15T05:47:58;91307.25;;;2.72;100.00
3464;BME280;3551;41.578;24.706;2024-02-15T05:50:27;91310.97;;;2.40;100.00
3464;BME280;3551;41.578;24.706;2024-02-15T05:52:55;91313.66;;;2.71;100.00
3464;BME280;3551;41.578;24.706;2024-02-15T05:55:24;91304.91;;;2.82;100.00
3464;BME280;3551;41.578;24.706;2024-02-15T05:57:52;91312.13;;;2.70;100.00
3464;BME280;3551;41.578;24.706;2024-02-15T06:00:21;91319.22;;;2.38;100.00
3464;BME280;3551;41.578;24.706;2024-02-15T06:02:48;91313.72;;;2.74;100.00
3464;BME280;3551;41.578;24.706;2024-02-15T06:05:17;91320.75;;;2.82;100.00
3464;BME280;3551;41.578;24.706;2024-02-15T06:07:45;91326.47;;;3.00;100.00
3464;BME280;3551;41.578;24.706;2024-02-15T06:10:12;91313.72;;;3.37;100.00
3464;BME280;3551;41.578;24.706;2024-02-15T06:12:40;91322.41;;;3.88;100.00
3464;BME280;3551;41.578;24.706;2024-02-15T06:15:08;91330.69;;;4.44;100.00
3464;BME280;3551;41.578;24.706;2024-02-15T06:17:40;91332.25;;;5.09;100.00
3464;BME280;3551;41.578;24.706;2024-02-15T06:20:11;91347.25;;;5.74;100.00
3464;BME280;3551;41.578;24.706;2024-02-15T06:22:39;91330.59;;;6.29;100.00
3464;BME280;3551;41.578;24.706;2024-02-15T06:25:08;91341.34;;;6.73;100.00
3464;BME280;3551;41.578;24.706;2024-02-15T06:27:36;91335.72;;;6.78;100.00
3464;BME280;3551;41.578;24.706;2024-02-15T06:30:07;91326.56;;;6.39;100.00
3464;BME280;3551;41.578;24.706;2024-02-15T06:32:51;91345.22;;;5.90;100.00
3464;BME280;3551;41.578;24.706;2024-02-15T06:35:36;91343.44;;;5.22;100.00
3464;BME280;3551;41.578;24.706;2024-02-15T06:38:21;91339.41;;;5.09;100.00
3464;BME280;3551;41.578;24.706;2024-02-15T06:41:07;91330.91;;;5.19;100.00
3464;BME280;3551;41.578;24.706;2024-02-15T06:43:34;91336.00;;;5.31;100.00
3464;BME280;3551;41.578;24.706;2024-02-15T06:46:01;91342.97;;;5.39;100.00
3464;BME280;3551;41.578;24.706;2024-02-15T06:48:29;91342.19;;;5.39;100.00
3464;BME280;3551;41.578;24.706;2024-02-15T06:50:56;91340.09;;;5.25;100.00
3464;BME280;3551;41.578;24.706;2024-02-15T06:53:23;91354.09;;;5.03;100.00
3464;BME280;3551;41.578;24.706;2024-02-15T06:55:50;91325.56;;;4.96;100.00
3464;BME280;3551;41.578;24.706;2024-02-15T06:58:19;91341.13;;;5.21;100.00
3464;BME280;3551;41.578;24.706;2024-02-15T07:00:47;91331.22;;;5.18;100.00
3464;BME280;3551;41.578;24.706;2024-02-15T07:03:15;91342.25;;;5.42;100.00
3464;BME280;3551;41.578;24.706;2024-02-15T07:05:42;91338.97;;;5.52;100.00
3464;BME280;3551;41.578;24.706;2024-02-15T07:08:09;91343.16;;;5.53;100.00
3464;BME280;3551;41.578;24.706;2024-02-15T07:10:38;91340.28;;;5.62;100.00
3464;BME280;3551;41.578;24.706;2024-02-15T07:13:05;91336.66;;;5.74;100.00
3464;BME280;3551;41.578;24.706;2024-02-15T07:15:34;91324.66;;;5.57;100.00
3464;BME280;3551;41.578;24.706;2024-02-15T07:18:04;91345.19;;;5.63;100.00
3464;BME280;3551;41.578;24.706;2024-02-15T07:20:32;91339.16;;;5.63;100.00
3464;BME280;3551;41.578;24.706;2024-02-15T07:22:59;91340.78;;;5.71;100.00
3464;BME280;3551;41.578;24.706;2024-02-15T07:25:25;91345.72;;;5.73;100.00
3464;BME280;3551;41.578;24.706;2024-02-15T07:27:52;91340.94;;;5.82;100.00
3464;BME280;3551;41.578;24.706;2024-02-15T07:30:20;91335.56;;;6.01;100.00
3464;BME280;3551;41.578;24.706;2024-02-15T07:32:49;91348.00;;;5.97;100.00
3464;BME280;3551;41.578;24.706;2024-02-15T07:35:16;91338.16;;;5.97;100.00
3464;BME280;3551;41.578;24.706;2024-02-15T07:37:54;91348.13;;;5.81;100.00
3464;BME280;3551;41.578;24.706;2024-02-15T07:40:23;91344.66;;;5.77;100.00
3464;BME280;3551;41.578;24.706;2024-02-15T07:42:56;91346.38;;;5.89;100.00
3464;BME280;3551;41.578;24.706;2024-02-15T07:45:23;91338.59;;;6.03;100.00
3464;BME280;3551;41.578;24.706;2024-02-15T07:47:51;91335.75;;;5.89;100.00
3464;BME280;3551;41.578;24.706;2024-02-15T07:50:18;91314.72;;;5.77;100.00
3464;BME280;3551;41.578;24.706;2024-02-15T07:52:48;91341.13;;;5.69;100.00
3464;BME280;3551;41.578;24.706;2024-02-15T07:55:16;91343.78;;;5.69;99.18
3464;BME280;3551;41.578;24.706;2024-02-15T07:57:43;91363.28;;;5.81;100.00
3464;BME280;3551;41.578;24.706;2024-02-15T08:03:02;91351.06;;;5.99;100.00
3464;BME280;3551;41.578;24.706;2024-02-15T08:05:29;91340.75;;;5.94;98.31
3464;BME280;3551;41.578;24.706;2024-02-15T08:07:56;91363.00;;;5.86;100.00
3464;BME280;3551;41.578;24.706;2024-02-15T08:10:24;91360.19;;;6.01;100.00
3464;BME280;3551;41.578;24.706;2024-02-15T08:12:52;91354.13;;;6.01;96.57
3464;BME280;3551;41.578;24.706;2024-02-15T08:15:21;91351.75;;;5.92;99.78
3464;BME280;3551;41.578;24.706;2024-02-15T08:17:49;91351.59;;;6.11;98.34
3464;BME280;3551;41.578;24.706;2024-02-15T08:20:18;91363.34;;;6.10;98.51
3464;BME280;3551;41.578;24.706;2024-02-15T08:22:47;91354.25;;;6.11;100.00
3464;BME280;3551;41.578;24.706;2024-02-15T08:25:14;91368.91;;;6.02;100.00
3464;BME280;3551;41.578;24.706;2024-02-15T08:27:46;91362.94;;;6.08;100.00
3464;BME280;3551;41.578;24.706;2024-02-15T08:30:16;91362.53;;;6.06;99.12
3464;BME280;3551;41.578;24.706;2024-02-15T08:32:43;91387.09;;;6.00;99.50
3464;BME280;3551;41.578;24.706;2024-02-15T08:35:12;91357.78;;;5.93;100.00
3464;BME280;3551;41.578;24.706;2024-02-15T08:37:41;91402.16;;;5.92;98.88
3464;BME280;3551;41.578;24.706;2024-02-15T08:40:09;91391.44;;;6.11;96.33
3464;BME280;3551;41.578;24.706;2024-02-15T08:42:38;91373.22;;;6.10;68.85
3464;BME280;3551;41.578;24.706;2024-02-15T08:45:06;91377.78;;;6.13;71.23
3464;BME280;3551;41.578;24.706;2024-02-15T08:47:35;91397.09;;;5.84;68.60
3464;BME280;3551;41.578;24.706;2024-02-15T08:50:03;91380.72;;;5.82;68.13
3464;BME280;3551;41.578;24.706;2024-02-15T08:52:31;91388.13;;;5.92;70.55
3464;BME280;3551;41.578;24.706;2024-02-15T08:54:59;91391.84;;;5.87;68.55
3464;BME280;3551;41.578;24.706;2024-02-15T08:57:26;91379.72;;;6.16;68.90
3464;BME280;3551;41.578;24.706;2024-02-15T08:59:53;91380.22;;;6.25;71.30
3464;BME280;3551;41.578;24.706;2024-02-15T09:02:21;91374.81;;;6.44;67.41
3464;BME280;3551;41.578;24.706;2024-02-15T09:04:48;91401.09;;;6.53;67.01
3464;BME280;3551;41.578;24.706;2024-02-15T09:07:15;91400.16;;;6.68;65.56
3464;BME280;3551;41.578;24.706;2024-02-15T09:09:47;91383.75;;;6.62;66.27
3464;BME280;3551;41.578;24.706;2024-02-15T09:12:15;91415.00;;;6.43;66.78
3464;BME280;3551;41.578;24.706;2024-02-15T09:14:42;91395.28;;;6.44;68.57
3464;BME280;3551;41.578;24.706;2024-02-15T09:17:09;91383.28;;;6.57;65.75
3464;BME280;3551;41.578;24.706;2024-02-15T09:19:36;91370.09;;;6.34;66.40
3464;BME280;3551;41.578;24.706;2024-02-15T09:22:03;91383.63;;;6.52;67.58
3464;BME280;3551;41.578;24.706;2024-02-15T09:24:31;91357.31;;;6.43;64.46
3464;BME280;3551;41.578;24.706;2024-02-15T09:26:59;91371.31;;;6.70;66.25
3464;BME280;3551;41.578;24.706;2024-02-15T09:29:29;91351.72;;;6.52;63.79
3464;BME280;3551;41.578;24.706;2024-02-15T09:31:58;91370.47;;;6.62;64.05
3464;BME280;3551;41.578;24.706;2024-02-15T09:34:27;91375.31;;;6.57;65.62
3464;BME280;3551;41.578;24.706;2024-02-15T09:36:54;91366.03;;;6.73;64.32
3464;BME280;3551;41.578;24.706;2024-02-15T09:39:22;91386.53;;;6.73;63.04
3464;BME280;3551;41.578;24.706;2024-02-15T09:41:50;91365.56;;;6.64;64.22
3464;BME280;3551;41.578;24.706;2024-02-15T09:44:24;91364.00;;;6.63;63.67
3464;BME280;3551;41.578;24.706;2024-02-15T09:47:01;91375.22;;;6.79;63.78
3464;BME280;3551;41.578;24.706;2024-02-15T09:49:35;91387.34;;;6.77;64.86
3464;BME280;3551;41.578;24.706;2024-02-15T09:52:06;91381.63;;;6.75;65.32
3464;BME280;3551;41.578;24.706;2024-02-15T09:54:39;91377.75;;;6.69;62.71
3464;BME280;3551;41.578;24.706;2024-02-15T09:57:09;91361.06;;;6.72;63.65
3464;BME280;3551;41.578;24.706;2024-02-15T09:59:37;91366.22;;;6.58;63.22
3464;BME280;3551;41.578;24.706;2024-02-15T10:02:10;91333.72;;;6.71;63.29
3464;BME280;3551;41.578;24.706;2024-02-15T10:04:40;91395.88;;;6.93;64.32
3464;BME280;3551;41.578;24.706;2024-02-15T10:07:09;91377.16;;;6.83;62.68
3464;BME280;3551;41.578;24.706;2024-02-15T10:12:36;91340.53;;;7.02;62.91
3464;BME280;3551;41.578;24.706;2024-02-15T10:15:08;91338.38;;;7.15;61.53
3464;BME280;3551;41.578;24.706;2024-02-15T10:17:37;91311.56;;;6.94;62.67
3464;BME280;3551;41.578;24.706;2024-02-15T10:20:05;91348.69;;;7.20;62.19
3464;BME280;3551;41.578;24.706;2024-02-15T10:22:32;91321.34;;;7.23;64.39
3464;BME280;3551;41.578;24.706;2024-02-15T10:25:11;91337.72;;;7.28;62.03
3464;BME280;3551;41.578;24.706;2024-02-15T10:27:39;91312.81;;;7.47;64.25
3464;BME280;3551;41.578;24.706;2024-02-15T10:30:15;91295.66;;;7.41;65.75
3464;BME280;3551;41.578;24.706;2024-02-15T10:32:44;91343.16;;;7.43;61.51
3464;BME280;3551;41.578;24.706;2024-02-15T10:35:18;91326.13;;;7.47;59.48
3464;BME280;3551;41.578;24.706;2024-02-15T10:37:47;91311.63;;;7.41;61.62
3464;BME280;3551;41.578;24.706;2024-02-15T10:40:17;91307.59;;;7.61;65.05
3464;BME280;3551;41.578;24.706;2024-02-15T10:42:46;91299.88;;;7.46;60.68
3464;BME280;3551;41.578;24.706;2024-02-15T10:45:15;91320.69;;;7.36;61.54
3464;BME280;3551;41.578;24.706;2024-02-15T10:47:45;91307.59;;;7.65;60.83
3464;BME280;3551;41.578;24.706;2024-02-15T10:50:13;91300.06;;;7.74;59.27
3464;BME280;3551;41.578;24.706;2024-02-15T10:52:47;91309.63;;;7.78;59.31
3464;BME280;3551;41.578;24.706;2024-02-15T10:55:24;91338.47;;;7.76;59.88
3464;BME280;3551;41.578;24.706;2024-02-15T10:57:54;91320.81;;;7.47;60.78
3464;BME280;3551;41.578;24.706;2024-02-15T11:00:24;91310.47;;;7.42;58.87
3464;BME280;3551;41.578;24.706;2024-02-15T11:03:01;91302.53;;;7.46;60.28
3464;BME280;3551;41.578;24.706;2024-02-15T11:05:32;91325.28;;;7.40;59.73
3464;BME280;3551;41.578;24.706;2024-02-15T11:08:01;91308.56;;;7.39;58.89
3464;BME280;3551;41.578;24.706;2024-02-15T11:10:30;91316.63;;;7.50;59.73
3464;BME280;3551;41.578;24.706;2024-02-15T11:13:00;91305.56;;;7.48;59.82
3464;BME280;3551;41.578;24.706;2024-02-15T11:15:41;91291.16;;;7.49;60.72
3464;BME280;3551;41.578;24.706;2024-02-15T11:18:45;91306.81;;;7.61;60.07
3464;BME280;3551;41.578;24.706;2024-02-15T11:21:15;91293.56;;;7.64;62.75
3464;BME280;3551;41.578;24.706;2024-02-15T11:23:42;91312.63;;;7.73;64.00
3464;BME280;3551;41.578;24.706;2024-02-15T11:26:45;91302.94;;;7.51;59.52
3464;BME280;3551;41.578;24.706;2024-02-15T11:32:34;91290.03;;;7.53;62.29
3464;BME280;3551;41.578;24.706;2024-02-15T11:35:06;91294.72;;;7.67;64.61
3464;BME280;3551;41.578;24.706;2024-02-15T11:38:01;91290.97;;;7.78;60.30
3464;BME280;3551;41.578;24.706;2024-02-15T11:41:06;91295.16;;;7.79;61.94
3464;BME280;3551;41.578;24.706;2024-02-15T11:43:53;91286.03;;;7.80;63.28
3464;BME280;3551;41.578;24.706;2024-02-15T11:46:25;91287.53;;;7.78;58.30
3464;BME280;3551;41.578;24.706;2024-02-15T11:48:55;91306.25;;;7.85;59.71
3464;BME280;3551;41.578;24.706;2024-02-15T11:51:27;91290.69;;;7.90;59.57
3464;BME280;3551;41.578;24.706;2024-02-15T11:54:02;91280.75;;;7.91;64.18
3464;BME280;3551;41.578;24.706;2024-02-15T11:56:31;91285.06;;;8.10;64.32
3464;BME280;3551;41.578;24.706;2024-02-15T11:59:03;91290.03;;;8.15;57.95
3464;BME280;3551;41.578;24.706;2024-02-15T12:01:32;91279.66;;;7.96;58.13
3464;BME280;3551;41.578;24.706;2024-02-15T12:04:16;91279.63;;;7.88;62.82
3464;BME280;3551;41.578;24.706;2024-02-15T12:07:03;91288.31;;;7.78;62.06
3464;BME280;3551;41.578;24.706;2024-02-15T12:09:47;91274.94;;;7.68;62.66
3464;BME280;3551;41.578;24.706;2024-02-15T12:12:32;91280.69;;;7.73;61.82
3464;BME280;3551;41.578;24.706;2024-02-15T12:15:16;91291.31;;;7.70;61.40
3464;BME280;3551;41.578;24.706;2024-02-15T12:18:13;91279.47;;;7.64;63.47
3464;BME280;3551;41.578;24.706;2024-02-15T12:20:58;91281.72;;;7.62;61.17
3464;BME280;3551;41.578;24.706;2024-02-15T12:23:26;91284.41;;;7.65;65.08
3464;BME280;3551;41.578;24.706;2024-02-15T12:26:05;91286.59;;;7.49;59.29
